KBRY/BRY METAR and TAF weather

Enter ICAO airport designator
Station Type Date Time Source
KBRY METAR 2022/06/28 06:35 UTC NOAA

KBRY 280635Z AUTO 00000KT 10SM CLR 16/11 A3021 RMK AO1


Station Type Date Time Source
KBRY Decoded METAR 2022/06/28 06:35 UTC NOAA

Station name not available
Jun 28, 2022 - 02:35 AM EDT / 2022.06.28 0635 UTC
Wind: Calm:0
Visibility: 10 mile(s):0
Sky conditions: clear
Temperature: 60 F (16 C)
Dew Point: 51 F (11 C)
Relative Humidity: 72%
Pressure (altimeter): 30.21 in. Hg (1023 hPa)
ob: KBRY 280635Z AUTO 00000KT 10SM CLR 16/11 A3021 RMK AO1
cycle: 6

Station Type Date Time Source
KBRY TAF UTC NOAA

Error!

Example: see airport list